sensor_id;sensor_type;location;lat;lon;timestamp;pressure;altitude;pressure_sealevel;temperature;humidity
8416;BME280;4245;42.120;24.732;2023-06-22T00:00:45;99519.41;;;24.97;76.91
8416;BME280;4245;42.120;24.732;2023-06-22T00:03:13;99512.47;;;24.94;76.57
8416;BME280;4245;42.120;24.732;2023-06-22T00:05:40;99516.69;;;24.97;77.81
8416;BME280;4245;42.120;24.732;2023-06-22T00:08:07;99513.88;;;24.90;79.04
8416;BME280;4245;42.120;24.732;2023-06-22T00:10:34;99522.16;;;24.82;80.52
8416;BME280;4245;42.120;24.732;2023-06-22T00:13:00;99529.44;;;24.82;82.16
8416;BME280;4245;42.120;24.732;2023-06-22T00:15:27;99526.28;;;24.78;83.99
8416;BME280;4245;42.120;24.732;2023-06-22T00:17:54;99519.53;;;24.74;85.06
8416;BME280;4245;42.120;24.732;2023-06-22T00:20:24;99524.69;;;24.69;86.21
8416;BME280;4245;42.120;24.732;2023-06-22T00:22:53;99534.53;;;24.70;86.73
8416;BME280;4245;42.120;24.732;2023-06-22T00:25:20;99529.59;;;24.74;86.93
8416;BME280;4245;42.120;24.732;2023-06-22T00:27:47;99531.81;;;24.70;87.48
8416;BME280;4245;42.120;24.732;2023-06-22T00:30:14;99548.06;;;24.63;88.63
8416;BME280;4245;42.120;24.732;2023-06-22T00:32:42;99540.75;;;24.64;86.17
8416;BME280;4245;42.120;24.732;2023-06-22T00:35:09;99544.38;;;24.20;88.69
8416;BME280;4245;42.120;24.732;2023-06-22T00:37:37;99541.72;;;23.83;92.57
8416;BME280;4245;42.120;24.732;2023-06-22T00:40:08;99547.53;;;23.95;91.49
8416;BME280;4245;42.120;24.732;2023-06-22T00:42:37;99545.84;;;23.94;92.17
8416;BME280;4245;42.120;24.732;2023-06-22T00:45:05;99552.19;;;23.71;94.36
8416;BME280;4245;42.120;24.732;2023-06-22T00:47:34;99549.34;;;23.50;96.84
8416;BME280;4245;42.120;24.732;2023-06-22T00:50:01;99545.63;;;23.28;100.00
8416;BME280;4245;42.120;24.732;2023-06-22T00:52:29;99542.19;;;23.12;100.00
8416;BME280;4245;42.120;24.732;2023-06-22T00:55:02;99543.19;;;23.11;100.00
8416;BME280;4245;42.120;24.732;2023-06-22T00:57:30;99540.53;;;23.25;100.00
8416;BME280;4245;42.120;24.732;2023-06-22T00:59:57;99537.81;;;23.25;100.00
8416;BME280;4245;42.120;24.732;2023-06-22T01:02:24;99539.69;;;23.25;98.53
8416;BME280;4245;42.120;24.732;2023-06-22T01:04:51;99543.53;;;23.30;96.10
8416;BME280;4245;42.120;24.732;2023-06-22T01:07:21;99542.34;;;23.10;99.49
8416;BME280;4245;42.120;24.732;2023-06-22T01:09:57;99538.16;;;23.08;100.00
8416;BME280;4245;42.120;24.732;2023-06-22T01:12:30;99536.03;;;22.95;100.00
8416;BME280;4245;42.120;24.732;2023-06-22T01:15:06;99536.09;;;23.10;99.03
8416;BME280;4245;42.120;24.732;2023-06-22T01:17:35;99540.66;;;23.09;98.70
8416;BME280;4245;42.120;24.732;2023-06-22T01:20:04;99549.84;;;23.08;99.82
8416;BME280;4245;42.120;24.732;2023-06-22T01:22:33;99544.75;;;23.05;100.00
8416;BME280;4245;42.120;24.732;2023-06-22T01:25:09;99545.25;;;23.09;100.00
8416;BME280;4245;42.120;24.732;2023-06-22T01:27:49;99535.75;;;23.13;100.00
8416;BME280;4245;42.120;24.732;2023-06-22T01:30:18;99532.53;;;23.09;100.00
8416;BME280;4245;42.120;24.732;2023-06-22T01:32:46;99533.19;;;23.11;100.00
8416;BME280;4245;42.120;24.732;2023-06-22T01:35:14;99529.09;;;23.15;100.00
8416;BME280;4245;42.120;24.732;2023-06-22T01:37:41;99538.19;;;23.22;100.00
8416;BME280;4245;42.120;24.732;2023-06-22T01:40:09;99537.19;;;23.23;100.00
8416;BME280;4245;42.120;24.732;2023-06-22T01:42:37;99531.69;;;23.31;100.00
8416;BME280;4245;42.120;24.732;2023-06-22T01:45:05;99526.72;;;23.35;100.00
8416;BME280;4245;42.120;24.732;2023-06-22T01:47:34;99521.56;;;23.25;100.00
8416;BME280;4245;42.120;24.732;2023-06-22T01:50:01;99522.28;;;23.19;100.00
8416;BME280;4245;42.120;24.732;2023-06-22T01:52:28;99522.66;;;23.16;100.00
8416;BME280;4245;42.120;24.732;2023-06-22T01:54:54;99526.38;;;23.15;100.00
8416;BME280;4245;42.120;24.732;2023-06-22T01:57:23;99526.34;;;23.23;100.00
8416;BME280;4245;42.120;24.732;2023-06-22T01:59:55;99531.63;;;23.17;100.00
8416;BME280;4245;42.120;24.732;2023-06-22T02:02:24;99539.59;;;23.18;100.00
8416;BME280;4245;42.120;24.732;2023-06-22T02:04:58;99539.28;;;23.13;100.00
8416;BME280;4245;42.120;24.732;2023-06-22T02:07:31;99538.63;;;23.11;100.00
8416;BME280;4245;42.120;24.732;2023-06-22T02:09:59;99534.03;;;23.12;100.00
8416;BME280;4245;42.120;24.732;2023-06-22T02:12:29;99525.16;;;23.03;100.00
8416;BME280;4245;42.120;24.732;2023-06-22T02:14:57;99536.09;;;23.10;100.00
8416;BME280;4245;42.120;24.732;2023-06-22T02:17:26;99523.59;;;23.09;100.00
8416;BME280;4245;42.120;24.732;2023-06-22T02:19:53;99532.97;;;22.98;100.00
8416;BME280;4245;42.120;24.732;2023-06-22T02:22:21;99532.00;;;22.91;100.00
8416;BME280;4245;42.120;24.732;2023-06-22T02:24:49;99532.38;;;22.88;100.00
8416;BME280;4245;42.120;24.732;2023-06-22T02:27:15;99530.50;;;22.88;100.00
8416;BME280;4245;42.120;24.732;2023-06-22T02:29:42;99536.16;;;22.79;100.00
8416;BME280;4245;42.120;24.732;2023-06-22T02:32:09;99538.38;;;22.67;100.00
8416;BME280;4245;42.120;24.732;2023-06-22T02:34:36;99541.25;;;22.66;100.00
8416;BME280;4245;42.120;24.732;2023-06-22T02:37:03;99542.09;;;22.66;100.00
8416;BME280;4245;42.120;24.732;2023-06-22T02:39:31;99546.47;;;22.44;100.00
8416;BME280;4245;42.120;24.732;2023-06-22T02:41:58;99543.41;;;22.47;100.00
8416;BME280;4245;42.120;24.732;2023-06-22T02:44:25;99551.34;;;22.49;100.00
8416;BME280;4245;42.120;24.732;2023-06-22T02:46:52;99551.09;;;22.36;100.00
8416;BME280;4245;42.120;24.732;2023-06-22T02:49:19;99547.16;;;22.38;100.00
8416;BME280;4245;42.120;24.732;2023-06-22T02:51:47;99554.13;;;22.33;100.00
8416;BME280;4245;42.120;24.732;2023-06-22T02:54:14;99557.34;;;22.28;100.00
8416;BME280;4245;42.120;24.732;2023-06-22T02:56:43;99564.81;;;22.26;100.00
8416;BME280;4245;42.120;24.732;2023-06-22T02:59:10;99562.28;;;22.25;100.00
8416;BME280;4245;42.120;24.732;2023-06-22T03:01:37;99564.19;;;22.16;100.00
8416;BME280;4245;42.120;24.732;2023-06-22T03:04:05;99559.47;;;22.10;100.00
8416;BME280;4245;42.120;24.732;2023-06-22T03:06:33;99570.13;;;22.12;100.00
8416;BME280;4245;42.120;24.732;2023-06-22T03:09:00;99571.28;;;22.17;100.00
8416;BME280;4245;42.120;24.732;2023-06-22T03:11:29;99571.97;;;22.11;100.00
8416;BME280;4245;42.120;24.732;2023-06-22T03:13:57;99568.59;;;22.09;100.00
8416;BME280;4245;42.120;24.732;2023-06-22T03:16:24;99574.69;;;22.11;100.00
8416;BME280;4245;42.120;24.732;2023-06-22T03:18:51;99574.31;;;22.14;100.00
8416;BME280;4245;42.120;24.732;2023-06-22T03:21:19;99573.31;;;22.15;100.00
8416;BME280;4245;42.120;24.732;2023-06-22T03:23:45;99569.94;;;22.13;100.00
8416;BME280;4245;42.120;24.732;2023-06-22T03:26:12;99580.41;;;22.16;100.00
8416;BME280;4245;42.120;24.732;2023-06-22T03:28:39;99581.28;;;22.08;100.00
8416;BME280;4245;42.120;24.732;2023-06-22T03:31:08;99582.94;;;22.18;100.00
8416;BME280;4245;42.120;24.732;2023-06-22T03:33:34;99579.84;;;22.29;100.00
8416;BME280;4245;42.120;24.732;2023-06-22T03:36:02;99585.94;;;22.31;100.00
8416;BME280;4245;42.120;24.732;2023-06-22T03:38:29;99586.44;;;22.34;100.00
8416;BME280;4245;42.120;24.732;2023-06-22T03:40:56;99590.13;;;22.41;100.00
8416;BME280;4245;42.120;24.732;2023-06-22T03:43:24;99586.38;;;22.50;100.00
8416;BME280;4245;42.120;24.732;2023-06-22T03:45:51;99594.63;;;22.57;100.00
8416;BME280;4245;42.120;24.732;2023-06-22T03:48:19;99588.03;;;22.60;100.00
8416;BME280;4245;42.120;24.732;2023-06-22T03:50:46;99596.31;;;22.58;100.00
8416;BME280;4245;42.120;24.732;2023-06-22T03:53:12;99593.38;;;22.68;100.00
8416;BME280;4245;42.120;24.732;2023-06-22T03:55:48;99599.16;;;22.65;100.00
8416;BME280;4245;42.120;24.732;2023-06-22T03:58:16;99589.88;;;22.59;100.00
8416;BME280;4245;42.120;24.732;2023-06-22T04:00:44;99588.34;;;22.65;100.00
8416;BME280;4245;42.120;24.732;2023-06-22T04:03:11;99592.34;;;22.77;100.00
8416;BME280;4245;42.120;24.732;2023-06-22T04:05:39;99587.19;;;22.90;100.00
8416;BME280;4245;42.120;24.732;2023-06-22T04:08:06;99576.63;;;23.03;100.00
8416;BME280;4245;42.120;24.732;2023-06-22T04:10:33;99588.47;;;23.25;100.00
8416;BME280;4245;42.120;24.732;2023-06-22T04:13:00;99583.66;;;23.12;100.00
8416;BME280;4245;42.120;24.732;2023-06-22T04:15:27;99584.84;;;23.10;100.00
8416;BME280;4245;42.120;24.732;2023-06-22T04:17:54;99584.56;;;23.27;100.00
8416;BME280;4245;42.120;24.732;2023-06-22T04:20:21;99586.91;;;23.30;100.00
8416;BME280;4245;42.120;24.732;2023-06-22T04:22:49;99595.13;;;23.22;100.00
8416;BME280;4245;42.120;24.732;2023-06-22T04:25:17;99596.91;;;23.30;100.00
8416;BME280;4245;42.120;24.732;2023-06-22T04:27:43;99597.22;;;23.35;100.00
8416;BME280;4245;42.120;24.732;2023-06-22T04:30:11;99602.03;;;23.70;100.00
8416;BME280;4245;42.120;24.732;2023-06-22T04:32:40;99599.13;;;23.57;100.00
8416;BME280;4245;42.120;24.732;2023-06-22T04:35:07;99597.00;;;23.45;100.00
8416;BME280;4245;42.120;24.732;2023-06-22T04:37:34;99602.09;;;23.39;100.00
8416;BME280;4245;42.120;24.732;2023-06-22T04:40:03;99596.38;;;23.34;100.00
8416;BME280;4245;42.120;24.732;2023-06-22T04:42:30;99594.34;;;23.36;100.00
8416;BME280;4245;42.120;24.732;2023-06-22T04:44:57;99604.88;;;23.54;100.00
8416;BME280;4245;42.120;24.732;2023-06-22T04:47:24;99604.56;;;23.72;100.00
8416;BME280;4245;42.120;24.732;2023-06-22T04:49:51;99606.38;;;23.94;97.99
8416;BME280;4245;42.120;24.732;2023-06-22T04:52:18;99606.00;;;23.97;98.12
8416;BME280;4245;42.120;24.732;2023-06-22T04:54:45;99604.81;;;24.14;96.18
8416;BME280;4245;42.120;24.732;2023-06-22T04:57:17;99591.16;;;24.37;94.12
8416;BME280;4245;42.120;24.732;2023-06-22T04:59:43;99593.78;;;24.45;94.54
8416;BME280;4245;42.120;24.732;2023-06-22T05:02:10;99585.97;;;24.72;92.16
8416;BME280;4245;42.120;24.732;2023-06-22T05:04:37;99582.50;;;24.78;91.17
8416;BME280;4245;42.120;24.732;2023-06-22T05:07:04;99576.75;;;25.02;89.25
8416;BME280;4245;42.120;24.732;2023-06-22T05:09:31;99577.84;;;25.07;88.08
8416;BME280;4245;42.120;24.732;2023-06-22T05:11:59;99581.72;;;25.20;87.75
8416;BME280;4245;42.120;24.732;2023-06-22T05:14:29;99583.88;;;25.45;85.57
8416;BME280;4245;42.120;24.732;2023-06-22T05:16:56;99587.16;;;25.62;84.19
8416;BME280;4245;42.120;24.732;2023-06-22T05:19:24;99591.47;;;25.78;83.21
8416;BME280;4245;42.120;24.732;2023-06-22T05:21:56;99587.28;;;25.75;83.19
8416;BME280;4245;42.120;24.732;2023-06-22T05:24:23;99585.75;;;25.94;81.49
8416;BME280;4245;42.120;24.732;2023-06-22T05:26:50;99588.47;;;26.22;80.14
8416;BME280;4245;42.120;24.732;2023-06-22T05:29:17;99587.63;;;26.21;80.18
8416;BME280;4245;42.120;24.732;2023-06-22T05:31:45;99591.50;;;26.40;79.14
8416;BME280;4245;42.120;24.732;2023-06-22T05:34:11;99602.31;;;26.68;78.29
8416;BME280;4245;42.120;24.732;2023-06-22T05:36:38;99595.75;;;26.90;76.89
8416;BME280;4245;42.120;24.732;2023-06-22T05:39:11;99597.69;;;27.16;76.10
8416;BME280;4245;42.120;24.732;2023-06-22T05:41:39;99597.50;;;27.37;74.92
8416;BME280;4245;42.120;24.732;2023-06-22T05:44:05;99595.91;;;27.62;73.68
8416;BME280;4245;42.120;24.732;2023-06-22T05:46:32;99597.78;;;27.82;72.75
8416;BME280;4245;42.120;24.732;2023-06-22T05:49:00;99596.28;;;27.99;70.76
8416;BME280;4245;42.120;24.732;2023-06-22T05:51:27;99591.88;;;28.04;68.84
8416;BME280;4245;42.120;24.732;2023-06-22T05:53:54;99596.94;;;28.21;67.24
8416;BME280;4245;42.120;24.732;2023-06-22T05:56:21;99593.59;;;28.12;66.56
8416;BME280;4245;42.120;24.732;2023-06-22T05:58:47;99599.16;;;28.50;65.10
8416;BME280;4245;42.120;24.732;2023-06-22T06:01:14;99606.41;;;28.89;62.15
8416;BME280;4245;42.120;24.732;2023-06-22T06:03:42;99593.28;;;29.04;60.26
8416;BME280;4245;42.120;24.732;2023-06-22T06:06:11;99601.38;;;29.24;59.44
8416;BME280;4245;42.120;24.732;2023-06-22T06:08:37;99593.84;;;29.51;57.80
8416;BME280;4245;42.120;24.732;2023-06-22T06:11:04;99604.13;;;29.80;55.44
8416;BME280;4245;42.120;24.732;2023-06-22T06:13:31;99607.50;;;29.82;54.60
8416;BME280;4245;42.120;24.732;2023-06-22T06:15:58;99604.03;;;29.93;54.50
8416;BME280;4245;42.120;24.732;2023-06-22T06:18:25;99607.28;;;30.08;53.18
8416;BME280;4245;42.120;24.732;2023-06-22T06:20:51;99605.16;;;30.29;53.14
8416;BME280;4245;42.120;24.732;2023-06-22T06:23:20;99606.81;;;30.54;52.01
8416;BME280;4245;42.120;24.732;2023-06-22T06:25:46;99599.88;;;30.52;51.67
8416;BME280;4245;42.120;24.732;2023-06-22T06:28:13;99602.28;;;30.60;51.57
8416;BME280;4245;42.120;24.732;2023-06-22T06:30:40;99594.59;;;30.87;50.42
8416;BME280;4245;42.120;24.732;2023-06-22T06:33:07;99602.44;;;30.65;50.83
8416;BME280;4245;42.120;24.732;2023-06-22T06:35:34;99601.16;;;30.68;50.81
8416;BME280;4245;42.120;24.732;2023-06-22T06:38:03;99591.56;;;30.77;51.01
8416;BME280;4245;42.120;24.732;2023-06-22T06:40:31;99598.91;;;30.94;49.74
8416;BME280;4245;42.120;24.732;2023-06-22T06:42:58;99601.09;;;31.22;48.68
8416;BME280;4245;42.120;24.732;2023-06-22T06:45:42;99600.19;;;31.40;48.32
8416;BME280;4245;42.120;24.732;2023-06-22T06:48:09;99595.72;;;31.57;47.30
8416;BME280;4245;42.120;24.732;2023-06-22T06:50:36;99593.28;;;31.49;46.89
8416;BME280;4245;42.120;24.732;2023-06-22T06:53:03;99599.22;;;31.64;47.26
8416;BME280;4245;42.120;24.732;2023-06-22T06:55:32;99598.28;;;32.05;46.00
8416;BME280;4245;42.120;24.732;2023-06-22T06:57:59;99599.97;;;32.41;45.05
8416;BME280;4245;42.120;24.732;2023-06-22T07:00:26;99599.97;;;32.53;44.48
8416;BME280;4245;42.120;24.732;2023-06-22T07:02:53;99598.66;;;32.67;44.43
8416;BME280;4245;42.120;24.732;2023-06-22T07:05:20;99599.50;;;32.96;42.87
8416;BME280;4245;42.120;24.732;2023-06-22T07:07:46;99599.09;;;33.15;43.61
8416;BME280;4245;42.120;24.732;2023-06-22T07:10:14;99602.84;;;33.26;42.61
8416;BME280;4245;42.120;24.732;2023-06-22T07:12:43;99596.97;;;33.34;42.60
8416;BME280;4245;42.120;24.732;2023-06-22T07:15:10;99602.06;;;33.42;42.24
8416;BME280;4245;42.120;24.732;2023-06-22T07:17:38;99600.06;;;33.38;41.89
8416;BME280;4245;42.120;24.732;2023-06-22T07:20:07;99608.59;;;33.53;41.49
8416;BME280;4245;42.120;24.732;2023-06-22T07:22:35;99611.50;;;33.46;41.94
8416;BME280;4245;42.120;24.732;2023-06-22T07:25:02;99603.88;;;33.20;41.73
8416;BME280;4245;42.120;24.732;2023-06-22T07:27:35;99600.78;;;32.76;43.07
8416;BME280;4245;42.120;24.732;2023-06-22T07:30:07;99603.25;;;32.78;43.24
8416;BME280;4245;42.120;24.732;2023-06-22T07:32:34;99604.75;;;32.57;43.75
8416;BME280;4245;42.120;24.732;2023-06-22T07:35:01;99612.84;;;32.75;43.71
8416;BME280;4245;42.120;24.732;2023-06-22T07:37:28;99613.09;;;33.02;41.58
8416;BME280;4245;42.120;24.732;2023-06-22T07:39:55;99608.59;;;32.96;41.17
8416;BME280;4245;42.120;24.732;2023-06-22T07:42:24;99613.38;;;33.01;41.00
8416;BME280;4245;42.120;24.732;2023-06-22T07:44:51;99608.19;;;33.16;40.93
8416;BME280;4245;42.120;24.732;2023-06-22T07:47:19;99605.25;;;33.51;40.25
8416;BME280;4245;42.120;24.732;2023-06-22T07:49:46;99612.00;;;33.88;39.47
8416;BME280;4245;42.120;24.732;2023-06-22T07:52:13;99615.25;;;34.19;38.06
8416;BME280;4245;42.120;24.732;2023-06-22T07:54:39;99611.31;;;33.98;37.81
8416;BME280;4245;42.120;24.732;2023-06-22T07:57:06;99603.53;;;34.28;36.11
8416;BME280;4245;42.120;24.732;2023-06-22T07:59:33;99613.47;;;34.29;35.99
8416;BME280;4245;42.120;24.732;2023-06-22T08:02:00;99612.94;;;34.49;34.94
8416;BME280;4245;42.120;24.732;2023-06-22T08:04:30;99605.78;;;34.70;35.28
8416;BME280;4245;42.120;24.732;2023-06-22T08:06:59;99608.75;;;34.85;34.05
8416;BME280;4245;42.120;24.732;2023-06-22T08:09:28;99601.56;;;35.11;33.86
8416;BME280;4245;42.120;24.732;2023-06-22T08:11:54;99608.06;;;34.56;33.96
8416;BME280;4245;42.120;24.732;2023-06-22T08:14:22;99597.31;;;34.38;35.33
8416;BME280;4245;42.120;24.732;2023-06-22T08:16:49;99600.28;;;34.70;34.74
8416;BME280;4245;42.120;24.732;2023-06-22T08:19:16;99591.25;;;35.23;33.72
8416;BME280;4245;42.120;24.732;2023-06-22T08:21:44;99590.28;;;35.34;33.89
8416;BME280;4245;42.120;24.732;2023-06-22T08:24:11;99596.19;;;35.48;32.86
8416;BME280;4245;42.120;24.732;2023-06-22T08:26:38;99589.53;;;35.44;33.32
8416;BME280;4245;42.120;24.732;2023-06-22T08:29:05;99587.88;;;35.74;33.25
8416;BME280;4245;42.120;24.732;2023-06-22T08:31:31;99580.38;;;36.02;32.47
8416;BME280;4245;42.120;24.732;2023-06-22T08:33:59;99586.28;;;36.15;31.91
8416;BME280;4245;42.120;24.732;2023-06-22T08:36:26;99585.34;;;36.47;31.36
8416;BME280;4245;42.120;24.732;2023-06-22T08:38:55;99580.06;;;36.35;31.38
8416;BME280;4245;42.120;24.732;2023-06-22T08:41:26;99573.69;;;35.98;31.59
8416;BME280;4245;42.120;24.732;2023-06-22T08:43:53;99576.63;;;36.70;31.17
8416;BME280;4245;42.120;24.732;2023-06-22T08:46:20;99576.13;;;36.83;30.66
8416;BME280;4245;42.120;24.732;2023-06-22T08:48:49;99573.75;;;37.07;30.10
8416;BME280;4245;42.120;24.732;2023-06-22T08:51:16;99572.41;;;37.40;29.99
8416;BME280;4245;42.120;24.732;2023-06-22T08:53:43;99571.63;;;37.85;28.92
8416;BME280;4245;42.120;24.732;2023-06-22T08:56:12;99582.69;;;38.15;27.77
8416;BME280;4245;42.120;24.732;2023-06-22T08:58:38;99584.38;;;38.01;27.82
8416;BME280;4245;42.120;24.732;2023-06-22T09:01:05;99580.47;;;37.72;27.68
8416;BME280;4245;42.120;24.732;2023-06-22T09:03:32;99578.00;;;38.01;27.76
8416;BME280;4245;42.120;24.732;2023-06-22T09:06:01;99579.09;;;38.15;27.71
8416;BME280;4245;42.120;24.732;2023-06-22T09:08:28;99577.13;;;38.20;27.54
8416;BME280;4245;42.120;24.732;2023-06-22T09:10:55;99584.31;;;38.47;27.58
8416;BME280;4245;42.120;24.732;2023-06-22T09:13:23;99585.56;;;38.80;27.31
8416;BME280;4245;42.120;24.732;2023-06-22T09:15:50;99586.75;;;39.23;25.86
8416;BME280;4245;42.120;24.732;2023-06-22T09:18:17;99584.44;;;38.81;26.71
8416;BME280;4245;42.120;24.732;2023-06-22T09:20:45;99589.09;;;39.00;25.92
8416;BME280;4245;42.120;24.732;2023-06-22T09:23:12;99583.03;;;38.93;26.28
8416;BME280;4245;42.120;24.732;2023-06-22T09:25:39;99581.16;;;39.67;25.32
8416;BME280;4245;42.120;24.732;2023-06-22T09:28:06;99576.38;;;39.77;25.21
8416;BME280;4245;42.120;24.732;2023-06-22T09:30:34;99569.00;;;39.91;24.94
8416;BME280;4245;42.120;24.732;2023-06-22T09:33:01;99580.88;;;40.55;23.70
8416;BME280;4245;42.120;24.732;2023-06-22T09:35:28;99569.22;;;40.76;23.19
8416;BME280;4245;42.120;24.732;2023-06-22T09:37:54;99583.41;;;40.99;23.38
8416;BME280;4245;42.120;24.732;2023-06-22T09:40:21;99570.56;;;41.03;23.14
8416;BME280;4245;42.120;24.732;2023-06-22T09:42:48;99572.31;;;40.75;23.73
8416;BME280;4245;42.120;24.732;2023-06-22T09:45:15;99566.25;;;40.68;23.07
8416;BME280;4245;42.120;24.732;2023-06-22T09:47:43;99564.41;;;40.82;23.60
8416;BME280;4245;42.120;24.732;2023-06-22T09:50:10;99565.84;;;40.56;24.15
8416;BME280;4245;42.120;24.732;2023-06-22T09:52:37;99567.16;;;41.06;23.29
8416;BME280;4245;42.120;24.732;2023-06-22T09:55:04;99571.47;;;41.17;22.81
8416;BME280;4245;42.120;24.732;2023-06-22T09:57:31;99571.53;;;41.68;22.04
8416;BME280;4245;42.120;24.732;2023-06-22T09:59:58;99570.19;;;41.47;22.18
8416;BME280;4245;42.120;24.732;2023-06-22T10:02:25;99566.19;;;41.85;21.48
8416;BME280;4245;42.120;24.732;2023-06-22T10:04:53;99565.00;;;41.91;21.09
8416;BME280;4245;42.120;24.732;2023-06-22T10:07:20;99566.94;;;42.37;21.31
8416;BME280;4245;42.120;24.732;2023-06-22T10:09:46;99569.41;;;42.52;21.06
8416;BME280;4245;42.120;24.732;2023-06-22T10:12:13;99564.31;;;42.95;21.15
8416;BME280;4245;42.120;24.732;2023-06-22T10:14:40;99568.94;;;43.27;21.04
8416;BME280;4245;42.120;24.732;2023-06-22T10:17:07;99557.59;;;43.10;20.70
8416;BME280;4245;42.120;24.732;2023-06-22T10:19:33;99558.41;;;43.10;21.32
8416;BME280;4245;42.120;24.732;2023-06-22T10:22:04;99552.16;;;43.27;21.21
8416;BME280;4245;42.120;24.732;2023-06-22T10:24:31;99557.78;;;43.00;21.32
8416;BME280;4245;42.120;24.732;2023-06-22T10:26:58;99553.56;;;43.02;20.94
8416;BME280;4245;42.120;24.732;2023-06-22T10:29:25;99559.34;;;43.06;20.91
8416;BME280;4245;42.120;24.732;2023-06-22T10:31:52;99553.69;;;42.56;21.06
8416;BME280;4245;42.120;24.732;2023-06-22T10:34:19;99551.28;;;42.08;21.47
8416;BME280;4245;42.120;24.732;2023-06-22T10:36:46;99547.19;;;42.33;21.73
8416;BME280;4245;42.120;24.732;2023-06-22T10:39:15;99540.50;;;43.11;20.82
8416;BME280;4245;42.120;24.732;2023-06-22T10:41:42;99548.72;;;43.08;20.09
8416;BME280;4245;42.120;24.732;2023-06-22T10:44:09;99532.59;;;42.50;20.62
8416;BME280;4245;42.120;24.732;2023-06-22T10:46:36;99532.38;;;42.87;20.77
8416;BME280;4245;42.120;24.732;2023-06-22T10:49:03;99531.22;;;43.24;20.71
8416;BME280;4245;42.120;24.732;2023-06-22T10:51:29;99530.16;;;43.79;20.06
8416;BME280;4245;42.120;24.732;2023-06-22T10:53:57;99522.50;;;44.15;19.53
8416;BME280;4245;42.120;24.732;2023-06-22T10:56:25;99518.19;;;44.17;19.08
8416;BME280;4245;42.120;24.732;2023-06-22T10:58:51;99518.53;;;43.18;19.87
8416;BME280;4245;42.120;24.732;2023-06-22T11:01:20;99515.81;;;43.49;19.78
8416;BME280;4245;42.120;24.732;2023-06-22T11:03:47;99512.84;;;43.99;19.95
8416;BME280;4245;42.120;24.732;2023-06-22T11:06:14;99510.56;;;44.40;19.67
8416;BME280;4245;42.120;24.732;2023-06-22T11:08:44;99512.44;;;44.62;19.66
8416;BME280;4245;42.120;24.732;2023-06-22T11:11:10;99515.31;;;44.88;19.34
8416;BME280;4245;42.120;24.732;2023-06-22T11:13:39;99515.16;;;45.01;19.21
8416;BME280;4245;42.120;24.732;2023-06-22T11:16:05;99512.38;;;45.36;18.80
8416;BME280;4245;42.120;24.732;2023-06-22T11:18:32;99517.31;;;45.30;18.67
8416;BME280;4245;42.120;24.732;2023-06-22T11:20:59;99513.16;;;43.97;19.56
8416;BME280;4245;42.120;24.732;2023-06-22T11:23:26;99509.88;;;42.92;20.13
8416;BME280;4245;42.120;24.732;2023-06-22T11:25:53;99504.88;;;42.40;20.69
8416;BME280;4245;42.120;24.732;2023-06-22T11:28:20;99501.75;;;42.00;20.81
8416;BME280;4245;42.120;24.732;2023-06-22T11:30:48;99495.56;;;41.39;21.58
8416;BME280;4245;42.120;24.732;2023-06-22T11:33:15;99499.44;;;41.24;22.23
8416;BME280;4245;42.120;24.732;2023-06-22T11:35:42;99492.19;;;41.23;22.04
8416;BME280;4245;42.120;24.732;2023-06-22T11:38:09;99490.84;;;40.41;22.62
8416;BME280;4245;42.120;24.732;2023-06-22T11:40:35;99492.00;;;39.87;22.97
8416;BME280;4245;42.120;24.732;2023-06-22T11:43:02;99488.66;;;39.56;23.47
8416;BME280;4245;42.120;24.732;2023-06-22T11:45:29;99494.44;;;38.92;23.75
8416;BME280;4245;42.120;24.732;2023-06-22T11:47:57;99492.81;;;38.76;24.34
8416;BME280;4245;42.120;24.732;2023-06-22T11:50:24;99486.75;;;39.51;23.78
8416;BME280;4245;42.120;24.732;2023-06-22T11:52:50;99488.66;;;39.85;23.77
8416;BME280;4245;42.120;24.732;2023-06-22T11:55:18;99482.78;;;40.39;24.06
8416;BME280;4245;42.120;24.732;2023-06-22T11:57:55;99488.94;;;41.16;22.93
8416;BME280;4245;42.120;24.732;2023-06-22T12:00:24;99491.66;;;41.72;22.46
8416;BME280;4245;42.120;24.732;2023-06-22T12:02:51;99484.19;;;42.27;22.10
8416;BME280;4245;42.120;24.732;2023-06-22T12:05:20;99486.19;;;41.81;22.33
8416;BME280;4245;42.120;24.732;2023-06-22T12:07:47;99481.25;;;41.27;22.70
8416;BME280;4245;42.120;24.732;2023-06-22T12:10:14;99479.41;;;41.54;22.60
8416;BME280;4245;42.120;24.732;2023-06-22T12:12:41;99471.28;;;41.58;22.34
8416;BME280;4245;42.120;24.732;2023-06-22T12:15:09;99478.63;;;40.98;23.26
8416;BME280;4245;42.120;24.732;2023-06-22T12:17:36;99479.41;;;40.66;23.85
8416;BME280;4245;42.120;24.732;2023-06-22T12:20:04;99473.44;;;41.29;23.46
8416;BME280;4245;42.120;24.732;2023-06-22T12:22:32;99473.16;;;41.76;22.77
8416;BME280;4245;42.120;24.732;2023-06-22T12:24:59;99463.69;;;42.18;22.50
8416;BME280;4245;42.120;24.732;2023-06-22T12:27:26;99462.25;;;42.48;22.17
8416;BME280;4245;42.120;24.732;2023-06-22T12:29:55;99461.56;;;41.37;22.56
8416;BME280;4245;42.120;24.732;2023-06-22T12:32:22;99452.56;;;39.80;24.92
8416;BME280;4245;42.120;24.732;2023-06-22T12:34:48;99459.94;;;38.49;25.41
8416;BME280;4245;42.120;24.732;2023-06-22T12:37:15;99445.47;;;37.67;27.13
8416;BME280;4245;42.120;24.732;2023-06-22T12:39:43;99436.63;;;37.60;27.39
8416;BME280;4245;42.120;24.732;2023-06-22T12:42:10;99438.34;;;38.31;26.50
8416;BME280;4245;42.120;24.732;2023-06-22T12:44:38;99445.63;;;38.76;26.81
8416;BME280;4245;42.120;24.732;2023-06-22T12:47:05;99441.47;;;39.12;25.79
8416;BME280;4245;42.120;24.732;2023-06-22T12:49:33;99427.47;;;39.56;25.08
8416;BME280;4245;42.120;24.732;2023-06-22T12:52:00;99428.44;;;39.70;25.51
8416;BME280;4245;42.120;24.732;2023-06-22T12:54:27;99437.84;;;40.03;25.23
8416;BME280;4245;42.120;24.732;2023-06-22T12:56:56;99432.50;;;39.83;25.02
8416;BME280;4245;42.120;24.732;2023-06-22T12:59:22;99438.13;;;39.49;25.33
8416;BME280;4245;42.120;24.732;2023-06-22T13:01:49;99431.38;;;38.38;25.83
8416;BME280;4245;42.120;24.732;2023-06-22T13:04:16;99437.09;;;37.88;26.94
8416;BME280;4245;42.120;24.732;2023-06-22T13:06:43;99437.44;;;37.66;27.60
8416;BME280;4245;42.120;24.732;2023-06-22T13:09:13;99434.94;;;37.29;27.81